Bagdad, Florida
Current Conditions -  °F | °C
As of 10:56 AM on Tuesday 21 Oct 2014 (Local Time) from KNDZ Reporting Station
Few Clouds Few Clouds  
Wind Chill: 76°   Ceiling: Unl
Heat Index: 76°   Visibility: 10mi
Dew Point: 52°   Wind: 10mph
Humidity: 43%   Direction: 20°NNE
Pressure: 30.04"   Gusts: NA
Location:  30.6°N, 87.04°W
Report Text: KNDZ 211556Z 02009KT 10SM FEW250 24/11 A3004 RMK AO2 SLP160 T02440111 $
Loading
Personal Weather Stations






























Interactive Weather Map
Tropical Storm Tracking
New forecast layout! Learn more

10-Day Weather Forecast

Advertisements
Track Severe Weather on mobile